sensor_id;sensor_type;location;lat;lon;timestamp;temperature;humidity
60727;DHT22;46577;49.004;12.120;2022-11-15T00:00:19;5.40;99.90
60727;DHT22;46577;49.004;12.120;2022-11-15T00:02:45;5.60;99.90
60727;DHT22;46577;49.004;12.120;2022-11-15T00:05:10;5.50;99.90
60727;DHT22;46577;49.004;12.120;2022-11-15T00:07:36;5.50;99.90
60727;DHT22;46577;49.004;12.120;2022-11-15T00:10:02;5.50;99.90
60727;DHT22;46577;49.004;12.120;2022-11-15T00:12:28;5.50;99.90
60727;DHT22;46577;49.004;12.120;2022-11-15T00:14:54;5.50;99.90
60727;DHT22;46577;49.004;12.120;2022-11-15T00:17:19;5.50;99.90
60727;DHT22;46577;49.004;12.120;2022-11-15T00:19:45;5.40;99.90
60727;DHT22;46577;49.004;12.120;2022-11-15T00:22:11;5.30;99.90
60727;DHT22;46577;49.004;12.120;2022-11-15T00:24:36;5.30;99.90
60727;DHT22;46577;49.004;12.120;2022-11-15T00:27:02;5.30;99.90
60727;DHT22;46577;49.004;12.120;2022-11-15T00:29:27;5.30;99.90
60727;DHT22;46577;49.004;12.120;2022-11-15T00:31:53;5.30;99.90
60727;DHT22;46577;49.004;12.120;2022-11-15T00:34:19;5.30;99.90
60727;DHT22;46577;49.004;12.120;2022-11-15T00:36:44;5.20;99.90
60727;DHT22;46577;49.004;12.120;2022-11-15T00:39:10;5.30;99.90
60727;DHT22;46577;49.004;12.120;2022-11-15T00:41:35;5.30;99.90
60727;DHT22;46577;49.004;12.120;2022-11-15T00:44:01;5.20;99.90
60727;DHT22;46577;49.004;12.120;2022-11-15T00:46:27;5.30;99.90
60727;DHT22;46577;49.004;12.120;2022-11-15T00:48:52;5.20;99.90
60727;DHT22;46577;49.004;12.120;2022-11-15T00:51:18;5.20;99.90
60727;DHT22;46577;49.004;12.120;2022-11-15T00:53:43;5.20;99.90
60727;DHT22;46577;49.004;12.120;2022-11-15T00:56:09;5.10;99.90
60727;DHT22;46577;49.004;12.120;2022-11-15T00:58:34;5.20;99.90
60727;DHT22;46577;49.004;12.120;2022-11-15T01:01:12;5.20;99.90
60727;DHT22;46577;49.004;12.120;2022-11-15T01:03:39;5.20;99.90
60727;DHT22;46577;49.004;12.120;2022-11-15T01:06:06;5.20;99.90
60727;DHT22;46577;49.004;12.120;2022-11-15T01:08:32;5.20;99.90
60727;DHT22;46577;49.004;12.120;2022-11-15T01:11:06;5.10;99.90
60727;DHT22;46577;49.004;12.120;2022-11-15T01:13:34;5.10;99.90
60727;DHT22;46577;49.004;12.120;2022-11-15T01:16:07;5.00;99.90
60727;DHT22;46577;49.004;12.120;2022-11-15T01:18:32;5.00;99.90
60727;DHT22;46577;49.004;12.120;2022-11-15T01:20:58;5.00;99.90
60727;DHT22;46577;49.004;12.120;2022-11-15T01:23:24;5.00;99.90
60727;DHT22;46577;49.004;12.120;2022-11-15T01:25:49;4.90;99.90
60727;DHT22;46577;49.004;12.120;2022-11-15T01:28:15;4.90;99.90
60727;DHT22;46577;49.004;12.120;2022-11-15T01:30:40;4.90;99.90
60727;DHT22;46577;49.004;12.120;2022-11-15T01:33:06;4.90;99.90
60727;DHT22;46577;49.004;12.120;2022-11-15T01:35:31;4.90;99.90
60727;DHT22;46577;49.004;12.120;2022-11-15T01:37:57;4.90;99.90
60727;DHT22;46577;49.004;12.120;2022-11-15T01:40:23;4.90;99.90
60727;DHT22;46577;49.004;12.120;2022-11-15T01:42:48;4.90;99.90
60727;DHT22;46577;49.004;12.120;2022-11-15T01:45:15;4.90;99.90
60727;DHT22;46577;49.004;12.120;2022-11-15T01:47:46;4.90;99.90
60727;DHT22;46577;49.004;12.120;2022-11-15T01:50:17;4.90;99.90
60727;DHT22;46577;49.004;12.120;2022-11-15T01:52:45;4.80;99.90
60727;DHT22;46577;49.004;12.120;2022-11-15T01:55:18;4.80;99.90
60727;DHT22;46577;49.004;12.120;2022-11-15T01:57:46;4.80;99.90
60727;DHT22;46577;49.004;12.120;2022-11-15T02:00:13;4.80;99.90
60727;DHT22;46577;49.004;12.120;2022-11-15T02:02:39;4.80;99.90
60727;DHT22;46577;49.004;12.120;2022-11-15T02:05:05;4.70;99.90
60727;DHT22;46577;49.004;12.120;2022-11-15T02:07:32;4.70;99.90
60727;DHT22;46577;49.004;12.120;2022-11-15T02:10:04;4.70;99.90
60727;DHT22;46577;49.004;12.120;2022-11-15T02:12:32;4.70;99.90
60727;DHT22;46577;49.004;12.120;2022-11-15T02:14:58;4.70;99.90
60727;DHT22;46577;49.004;12.120;2022-11-15T02:17:32;4.70;99.90
60727;DHT22;46577;49.004;12.120;2022-11-15T02:23:12;4.70;99.90
60727;DHT22;46577;49.004;12.120;2022-11-15T02:28:40;4.70;99.90
60727;DHT22;46577;49.004;12.120;2022-11-15T02:31:26;4.60;99.90
60727;DHT22;46577;49.004;12.120;2022-11-15T02:37:07;4.60;99.90
60727;DHT22;46577;49.004;12.120;2022-11-15T02:39:55;4.60;99.90
60727;DHT22;46577;49.004;12.120;2022-11-15T02:42:28;4.70;99.90
60727;DHT22;46577;49.004;12.120;2022-11-15T02:45:21;4.60;99.90
60727;DHT22;46577;49.004;12.120;2022-11-15T02:47:50;4.50;99.90
60727;DHT22;46577;49.004;12.120;2022-11-15T02:50:19;4.60;99.90
60727;DHT22;46577;49.004;12.120;2022-11-15T02:52:47;4.50;99.90
60727;DHT22;46577;49.004;12.120;2022-11-15T03:01:08;4.40;99.90
60727;DHT22;46577;49.004;12.120;2022-11-15T03:14:57;4.30;99.90
60727;DHT22;46577;49.004;12.120;2022-11-15T03:17:38;4.20;99.90
60727;DHT22;46577;49.004;12.120;2022-11-15T03:20:06;4.20;99.90
60727;DHT22;46577;49.004;12.120;2022-11-15T03:22:36;4.30;99.90
60727;DHT22;46577;49.004;12.120;2022-11-15T03:25:06;4.20;99.90
60727;DHT22;46577;49.004;12.120;2022-11-15T03:27:36;4.20;99.90
60727;DHT22;46577;49.004;12.120;2022-11-15T03:30:06;4.30;99.90
60727;DHT22;46577;49.004;12.120;2022-11-15T03:32:53;4.20;99.90
60727;DHT22;46577;49.004;12.120;2022-11-15T03:35:22;4.30;99.90
60727;DHT22;46577;49.004;12.120;2022-11-15T03:40:25;4.30;99.90
60727;DHT22;46577;49.004;12.120;2022-11-15T03:43:02;4.30;99.90
60727;DHT22;46577;49.004;12.120;2022-11-15T03:45:57;4.30;99.90
60727;DHT22;46577;49.004;12.120;2022-11-15T03:48:24;4.20;99.90
60727;DHT22;46577;49.004;12.120;2022-11-15T03:50:51;4.10;99.90
60727;DHT22;46577;49.004;12.120;2022-11-15T03:53:17;4.10;99.90
60727;DHT22;46577;49.004;12.120;2022-11-15T03:55:43;4.10;99.90
60727;DHT22;46577;49.004;12.120;2022-11-15T03:58:08;4.20;99.90
60727;DHT22;46577;49.004;12.120;2022-11-15T04:00:34;4.10;99.90
60727;DHT22;46577;49.004;12.120;2022-11-15T04:03:00;4.10;99.90
60727;DHT22;46577;49.004;12.120;2022-11-15T04:05:25;4.10;99.90
60727;DHT22;46577;49.004;12.120;2022-11-15T04:07:51;4.00;99.90
60727;DHT22;46577;49.004;12.120;2022-11-15T04:10:17;4.00;99.90
60727;DHT22;46577;49.004;12.120;2022-11-15T04:12:44;4.00;99.90
60727;DHT22;46577;49.004;12.120;2022-11-15T04:15:14;3.90;99.90
60727;DHT22;46577;49.004;12.120;2022-11-15T04:17:47;4.00;99.90
60727;DHT22;46577;49.004;12.120;2022-11-15T04:20:23;4.00;99.90
60727;DHT22;46577;49.004;12.120;2022-11-15T04:23:22;4.00;99.90
60727;DHT22;46577;49.004;12.120;2022-11-15T04:26:15;3.90;99.90
60727;DHT22;46577;49.004;12.120;2022-11-15T04:28:42;3.90;99.90
60727;DHT22;46577;49.004;12.120;2022-11-15T04:31:26;3.90;99.90
60727;DHT22;46577;49.004;12.120;2022-11-15T04:33:52;3.90;99.90
60727;DHT22;46577;49.004;12.120;2022-11-15T04:36:18;3.80;99.90
60727;DHT22;46577;49.004;12.120;2022-11-15T04:39:03;3.80;99.90
60727;DHT22;46577;49.004;12.120;2022-11-15T04:41:28;3.80;99.90
60727;DHT22;46577;49.004;12.120;2022-11-15T04:43:54;3.80;99.90
60727;DHT22;46577;49.004;12.120;2022-11-15T04:46:21;3.80;99.90
60727;DHT22;46577;49.004;12.120;2022-11-15T04:48:47;3.70;99.90
60727;DHT22;46577;49.004;12.120;2022-11-15T04:51:12;3.70;99.90
60727;DHT22;46577;49.004;12.120;2022-11-15T04:53:38;3.70;99.90
60727;DHT22;46577;49.004;12.120;2022-11-15T04:56:03;3.70;99.90
60727;DHT22;46577;49.004;12.120;2022-11-15T04:58:29;3.70;99.90
60727;DHT22;46577;49.004;12.120;2022-11-15T05:00:55;3.70;99.90
60727;DHT22;46577;49.004;12.120;2022-11-15T05:03:20;3.70;99.90
60727;DHT22;46577;49.004;12.120;2022-11-15T05:06:05;3.70;99.90
60727;DHT22;46577;49.004;12.120;2022-11-15T05:08:31;3.70;99.90
60727;DHT22;46577;49.004;12.120;2022-11-15T05:10:56;3.70;99.90
60727;DHT22;46577;49.004;12.120;2022-11-15T05:13:22;3.70;99.90
60727;DHT22;46577;49.004;12.120;2022-11-15T05:15:48;3.70;99.90
60727;DHT22;46577;49.004;12.120;2022-11-15T05:18:13;3.60;99.90
60727;DHT22;46577;49.004;12.120;2022-11-15T05:20:39;3.60;99.90
60727;DHT22;46577;49.004;12.120;2022-11-15T05:23:04;3.60;99.90
60727;DHT22;46577;49.004;12.120;2022-11-15T05:25:30;3.50;99.90
60727;DHT22;46577;49.004;12.120;2022-11-15T05:27:56;3.50;99.90
60727;DHT22;46577;49.004;12.120;2022-11-15T05:30:22;5.00;99.90
60727;DHT22;46577;49.004;12.120;2022-11-15T05:32:47;3.50;99.90
60727;DHT22;46577;49.004;12.120;2022-11-15T05:35:25;3.60;99.90
60727;DHT22;46577;49.004;12.120;2022-11-15T05:37:51;3.60;99.90
60727;DHT22;46577;49.004;12.120;2022-11-15T05:40:16;3.60;99.90
60727;DHT22;46577;49.004;12.120;2022-11-15T05:42:42;3.50;99.90
60727;DHT22;46577;49.004;12.120;2022-11-15T05:45:08;3.50;99.90
60727;DHT22;46577;49.004;12.120;2022-11-15T05:47:35;3.50;99.90
60727;DHT22;46577;49.004;12.120;2022-11-15T05:50:02;3.60;99.90
60727;DHT22;46577;49.004;12.120;2022-11-15T05:52:31;3.60;99.90
60727;DHT22;46577;49.004;12.120;2022-11-15T05:54:57;3.50;99.90
60727;DHT22;46577;49.004;12.120;2022-11-15T05:57:24;3.40;99.90
60727;DHT22;46577;49.004;12.120;2022-11-15T05:59:49;3.50;99.90
60727;DHT22;46577;49.004;12.120;2022-11-15T06:02:15;3.50;99.90
60727;DHT22;46577;49.004;12.120;2022-11-15T06:04:41;3.50;99.90
60727;DHT22;46577;49.004;12.120;2022-11-15T06:07:06;3.50;99.90
60727;DHT22;46577;49.004;12.120;2022-11-15T06:09:32;3.60;99.90
60727;DHT22;46577;49.004;12.120;2022-11-15T06:11:57;3.60;99.90
60727;DHT22;46577;49.004;12.120;2022-11-15T06:14:23;3.60;99.90
60727;DHT22;46577;49.004;12.120;2022-11-15T06:16:49;3.70;99.90
60727;DHT22;46577;49.004;12.120;2022-11-15T06:19:14;3.60;99.90
60727;DHT22;46577;49.004;12.120;2022-11-15T06:21:40;3.60;99.90
60727;DHT22;46577;49.004;12.120;2022-11-15T06:24:06;3.60;99.90
60727;DHT22;46577;49.004;12.120;2022-11-15T06:26:31;3.60;99.90
60727;DHT22;46577;49.004;12.120;2022-11-15T06:28:57;3.50;99.90
60727;DHT22;46577;49.004;12.120;2022-11-15T06:31:23;3.40;99.90
60727;DHT22;46577;49.004;12.120;2022-11-15T06:33:48;3.40;99.90
60727;DHT22;46577;49.004;12.120;2022-11-15T06:36:15;3.40;99.90
60727;DHT22;46577;49.004;12.120;2022-11-15T06:38:43;3.30;99.90
60727;DHT22;46577;49.004;12.120;2022-11-15T06:41:10;3.30;99.90
60727;DHT22;46577;49.004;12.120;2022-11-15T06:43:36;3.40;99.90
60727;DHT22;46577;49.004;12.120;2022-11-15T06:46:03;3.50;99.90
60727;DHT22;46577;49.004;12.120;2022-11-15T06:48:30;3.60;99.90
60727;DHT22;46577;49.004;12.120;2022-11-15T06:50:58;3.80;99.90
60727;DHT22;46577;49.004;12.120;2022-11-15T06:53:24;3.70;99.90
60727;DHT22;46577;49.004;12.120;2022-11-15T06:55:51;3.80;99.90
60727;DHT22;46577;49.004;12.120;2022-11-15T06:58:17;3.90;99.90
60727;DHT22;46577;49.004;12.120;2022-11-15T07:00:43;3.90;99.90
60727;DHT22;46577;49.004;12.120;2022-11-15T07:03:09;4.00;99.90
60727;DHT22;46577;49.004;12.120;2022-11-15T07:05:35;4.10;99.90
60727;DHT22;46577;49.004;12.120;2022-11-15T07:08:01;4.10;99.90
60727;DHT22;46577;49.004;12.120;2022-11-15T07:10:28;4.20;99.90
60727;DHT22;46577;49.004;12.120;2022-11-15T07:12:54;4.20;99.90
60727;DHT22;46577;49.004;12.120;2022-11-15T07:15:22;4.20;99.90
60727;DHT22;46577;49.004;12.120;2022-11-15T07:17:49;4.30;99.90
60727;DHT22;46577;49.004;12.120;2022-11-15T07:20:15;4.30;99.90
60727;DHT22;46577;49.004;12.120;2022-11-15T07:22:41;4.40;99.90
60727;DHT22;46577;49.004;12.120;2022-11-15T07:25:08;4.50;99.90
60727;DHT22;46577;49.004;12.120;2022-11-15T07:27:33;4.60;99.90
60727;DHT22;46577;49.004;12.120;2022-11-15T07:29:59;4.60;99.90
60727;DHT22;46577;49.004;12.120;2022-11-15T07:32:25;4.70;99.90
60727;DHT22;46577;49.004;12.120;2022-11-15T07:34:50;4.80;99.90
60727;DHT22;46577;49.004;12.120;2022-11-15T07:37:16;4.80;99.90
60727;DHT22;46577;49.004;12.120;2022-11-15T07:39:42;4.90;99.90
60727;DHT22;46577;49.004;12.120;2022-11-15T07:42:08;4.90;99.90
60727;DHT22;46577;49.004;12.120;2022-11-15T07:44:52;4.90;99.90
60727;DHT22;46577;49.004;12.120;2022-11-15T07:47:18;4.90;99.90
60727;DHT22;46577;49.004;12.120;2022-11-15T07:49:44;5.10;99.90
60727;DHT22;46577;49.004;12.120;2022-11-15T07:52:11;5.00;99.90
60727;DHT22;46577;49.004;12.120;2022-11-15T07:54:37;5.10;99.90
60727;DHT22;46577;49.004;12.120;2022-11-15T07:57:03;5.20;99.90
60727;DHT22;46577;49.004;12.120;2022-11-15T07:59:28;5.20;99.90
60727;DHT22;46577;49.004;12.120;2022-11-15T08:01:54;5.30;99.90
60727;DHT22;46577;49.004;12.120;2022-11-15T08:04:19;5.40;99.90
60727;DHT22;46577;49.004;12.120;2022-11-15T08:06:45;5.50;99.90
60727;DHT22;46577;49.004;12.120;2022-11-15T08:09:11;5.60;99.90
60727;DHT22;46577;49.004;12.120;2022-11-15T08:11:37;5.60;99.90
60727;DHT22;46577;49.004;12.120;2022-11-15T08:14:02;5.70;99.90
60727;DHT22;46577;49.004;12.120;2022-11-15T08:16:28;5.60;99.90
60727;DHT22;46577;49.004;12.120;2022-11-15T08:18:54;5.80;99.90
60727;DHT22;46577;49.004;12.120;2022-11-15T08:21:20;6.00;99.90
60727;DHT22;46577;49.004;12.120;2022-11-15T08:23:46;6.20;99.90
60727;DHT22;46577;49.004;12.120;2022-11-15T08:26:12;6.70;99.90
60727;DHT22;46577;49.004;12.120;2022-11-15T08:28:38;7.20;99.90
60727;DHT22;46577;49.004;12.120;2022-11-15T08:31:04;7.80;99.90
60727;DHT22;46577;49.004;12.120;2022-11-15T08:33:30;8.30;99.90
60727;DHT22;46577;49.004;12.120;2022-11-15T08:35:57;8.90;99.90
60727;DHT22;46577;49.004;12.120;2022-11-15T08:38:23;9.60;99.90
60727;DHT22;46577;49.004;12.120;2022-11-15T08:40:50;10.20;99.90
60727;DHT22;46577;49.004;12.120;2022-11-15T08:43:16;10.60;99.90
60727;DHT22;46577;49.004;12.120;2022-11-15T08:45:42;11.10;99.90
60727;DHT22;46577;49.004;12.120;2022-11-15T08:48:07;11.50;99.90
60727;DHT22;46577;49.004;12.120;2022-11-15T08:50:33;11.90;99.90
60727;DHT22;46577;49.004;12.120;2022-11-15T08:53:05;12.30;99.90
60727;DHT22;46577;49.004;12.120;2022-11-15T08:55:31;12.60;99.30
60727;DHT22;46577;49.004;12.120;2022-11-15T08:57:57;12.80;99.20
60727;DHT22;46577;49.004;12.120;2022-11-15T09:00:23;13.00;98.60
60727;DHT22;46577;49.004;12.120;2022-11-15T09:02:49;13.10;98.40
60727;DHT22;46577;49.004;12.120;2022-11-15T09:05:14;13.50;97.70
60727;DHT22;46577;49.004;12.120;2022-11-15T09:07:43;13.90;97.10
60727;DHT22;46577;49.004;12.120;2022-11-15T09:10:09;14.10;96.10
60727;DHT22;46577;49.004;12.120;2022-11-15T09:12:35;14.20;95.60
60727;DHT22;46577;49.004;12.120;2022-11-15T09:15:00;14.50;94.60
60727;DHT22;46577;49.004;12.120;2022-11-15T09:17:26;14.70;94.30
60727;DHT22;46577;49.004;12.120;2022-11-15T09:19:51;14.70;93.70
60727;DHT22;46577;49.004;12.120;2022-11-15T09:22:17;14.60;93.30
60727;DHT22;46577;49.004;12.120;2022-11-15T09:24:43;14.60;93.10
60727;DHT22;46577;49.004;12.120;2022-11-15T09:27:08;14.80;92.70
60727;DHT22;46577;49.004;12.120;2022-11-15T09:29:34;14.90;92.20
60727;DHT22;46577;49.004;12.120;2022-11-15T09:31:59;14.90;91.90
60727;DHT22;46577;49.004;12.120;2022-11-15T09:34:25;14.90;91.80
60727;DHT22;46577;49.004;12.120;2022-11-15T09:36:51;15.00;91.40
60727;DHT22;46577;49.004;12.120;2022-11-15T09:39:17;15.10;91.20
60727;DHT22;46577;49.004;12.120;2022-11-15T09:50:10;15.20;90.70
60727;DHT22;46577;49.004;12.120;2022-11-15T09:52:36;15.20;90.70
60727;DHT22;46577;49.004;12.120;2022-11-15T09:55:05;15.20;90.80
60727;DHT22;46577;49.004;12.120;2022-11-15T10:00:42;15.90;90.10
60727;DHT22;46577;49.004;12.120;2022-11-15T10:03:14;16.40;88.80
60727;DHT22;46577;49.004;12.120;2022-11-15T10:05:50;16.60;86.70
60727;DHT22;46577;49.004;12.120;2022-11-15T10:08:54;17.40;87.50
60727;DHT22;46577;49.004;12.120;2022-11-15T10:11:25;17.20;86.30
60727;DHT22;46577;49.004;12.120;2022-11-15T10:13:53;17.80;83.50
60727;DHT22;46577;49.004;12.120;2022-11-15T10:24:44;17.70;79.60
60727;DHT22;46577;49.004;12.120;2022-11-15T10:27:12;17.50;80.30
60727;DHT22;46577;49.004;12.120;2022-11-15T10:29:44;17.30;81.20
60727;DHT22;46577;49.004;12.120;2022-11-15T10:32:11;17.10;82.20
60727;DHT22;46577;49.004;12.120;2022-11-15T10:34:37;17.20;82.70
60727;DHT22;46577;49.004;12.120;2022-11-15T10:37:03;17.30;83.10
60727;DHT22;46577;49.004;12.120;2022-11-15T10:39:29;17.30;82.60
60727;DHT22;46577;49.004;12.120;2022-11-15T10:41:55;17.40;82.00
60727;DHT22;46577;49.004;12.120;2022-11-15T10:44:21;17.30;82.00
60727;DHT22;46577;49.004;12.120;2022-11-15T10:49:21;17.10;82.80
60727;DHT22;46577;49.004;12.120;2022-11-15T10:54:44;17.00;84.20
60727;DHT22;46577;49.004;12.120;2022-11-15T10:57:25;17.00;85.10
60727;DHT22;46577;49.004;12.120;2022-11-15T10:59:54;17.10;85.40
60727;DHT22;46577;49.004;12.120;2022-11-15T11:04:52;17.30;84.90
60727;DHT22;46577;49.004;12.120;2022-11-15T11:07:27;17.40;84.40
60727;DHT22;46577;49.004;12.120;2022-11-15T11:12:29;17.00;84.10
60727;DHT22;46577;49.004;12.120;2022-11-15T11:14:57;17.00;85.10
60727;DHT22;46577;49.004;12.120;2022-11-15T11:17:36;17.20;84.30
60727;DHT22;46577;49.004;12.120;2022-11-15T11:20:32;17.30;83.40
60727;DHT22;46577;49.004;12.120;2022-11-15T11:28:39;17.40;83.10
60727;DHT22;46577;49.004;12.120;2022-11-15T11:31:36;17.60;82.30
60727;DHT22;46577;49.004;12.120;2022-11-15T11:34:13;17.70;81.00
60727;DHT22;46577;49.004;12.120;2022-11-15T11:37:17;17.80;81.10
60727;DHT22;46577;49.004;12.120;2022-11-15T11:39:49;18.10;80.80
60727;DHT22;46577;49.004;12.120;2022-11-15T11:42:31;18.10;80.00
60727;DHT22;46577;49.004;12.120;2022-11-15T11:45:24;18.30;80.00
60727;DHT22;46577;49.004;12.120;2022-11-15T11:50:36;18.30;77.80
60727;DHT22;46577;49.004;12.120;2022-11-15T11:53:11;18.30;78.00
60727;DHT22;46577;49.004;12.120;2022-11-15T11:55:47;18.20;77.80
60727;DHT22;46577;49.004;12.120;2022-11-15T11:58:24;17.90;79.70
60727;DHT22;46577;49.004;12.120;2022-11-15T12:00:55;18.20;78.00
60727;DHT22;46577;49.004;12.120;2022-11-15T12:03:49;18.40;78.20
60727;DHT22;46577;49.004;12.120;2022-11-15T12:06:21;18.60;77.30
60727;DHT22;46577;49.004;12.120;2022-11-15T12:12:06;19.30;76.30
60727;DHT22;46577;49.004;12.120;2022-11-15T12:14:47;19.60;73.60
60727;DHT22;46577;49.004;12.120;2022-11-15T12:17:17;19.90;72.60
60727;DHT22;46577;49.004;12.120;2022-11-15T12:19:45;19.90;71.90
60727;DHT22;46577;49.004;12.120;2022-11-15T12:25:18;19.80;71.20
60727;DHT22;46577;49.004;12.120;2022-11-15T12:30:47;19.80;72.50
60727;DHT22;46577;49.004;12.120;2022-11-15T12:36:02;19.80;71.20
60727;DHT22;46577;49.004;12.120;2022-11-15T12:39:02;19.70;70.10
60727;DHT22;46577;49.004;12.120;2022-11-15T12:41:42;19.40;70.90
60727;DHT22;46577;49.004;12.120;2022-11-15T12:44:15;19.30;71.90
60727;DHT22;46577;49.004;12.120;2022-11-15T12:46:59;19.20;72.20
60727;DHT22;46577;49.004;12.120;2022-11-15T13:02:26;17.40;77.10
60727;DHT22;46577;49.004;12.120;2022-11-15T13:04:55;17.30;76.90
60727;DHT22;46577;49.004;12.120;2022-11-15T13:17:39;16.90;80.00
60727;DHT22;46577;49.004;12.120;2022-11-15T13:22:45;16.60;81.30
60727;DHT22;46577;49.004;12.120;2022-11-15T13:28:09;16.30;82.90
60727;DHT22;46577;49.004;12.120;2022-11-15T13:30:36;16.20;83.10
60727;DHT22;46577;49.004;12.120;2022-11-15T13:33:14;15.80;83.80
60727;DHT22;46577;49.004;12.120;2022-11-15T13:35:42;15.70;84.70
60727;DHT22;46577;49.004;12.120;2022-11-15T13:38:27;15.50;86.00
60727;DHT22;46577;49.004;12.120;2022-11-15T13:40:54;15.30;86.90
60727;DHT22;46577;49.004;12.120;2022-11-15T13:43:26;15.20;87.90
60727;DHT22;46577;49.004;12.120;2022-11-15T13:46:14;15.10;88.90
60727;DHT22;46577;49.004;12.120;2022-11-15T13:48:41;14.90;88.80
60727;DHT22;46577;49.004;12.120;2022-11-15T13:51:24;14.80;90.10
60727;DHT22;46577;49.004;12.120;2022-11-15T13:54:06;14.80;90.30
60727;DHT22;46577;49.004;12.120;2022-11-15T13:56:33;14.60;90.40
60727;DHT22;46577;49.004;12.120;2022-11-15T13:59:00;14.60;90.90
60727;DHT22;46577;49.004;12.120;2022-11-15T14:01:28;14.30;91.30
60727;DHT22;46577;49.004;12.120;2022-11-15T14:03:58;14.40;91.40
60727;DHT22;46577;49.004;12.120;2022-11-15T14:06:27;14.40;91.70
60727;DHT22;46577;49.004;12.120;2022-11-15T14:09:04;14.40;91.90
60727;DHT22;46577;49.004;12.120;2022-11-15T14:11:30;14.40;92.20
60727;DHT22;46577;49.004;12.120;2022-11-15T14:16:38;14.30;92.60
60727;DHT22;46577;49.004;12.120;2022-11-15T14:19:05;14.20;93.20
60727;DHT22;46577;49.004;12.120;2022-11-15T14:21:32;14.20;93.20
60727;DHT22;46577;49.004;12.120;2022-11-15T14:24:20;14.10;93.60
60727;DHT22;46577;49.004;12.120;2022-11-15T14:26:46;14.10;93.70
60727;DHT22;46577;49.004;12.120;2022-11-15T14:29:29;14.00;94.10
60727;DHT22;46577;49.004;12.120;2022-11-15T14:32:16;14.00;94.10
60727;DHT22;46577;49.004;12.120;2022-11-15T14:34:42;14.00;94.30
60727;DHT22;46577;49.004;12.120;2022-11-15T14:37:24;13.90;94.60
60727;DHT22;46577;49.004;12.120;2022-11-15T14:39:50;13.80;94.70
60727;DHT22;46577;49.004;12.120;2022-11-15T14:42:17;13.80;94.90
60727;DHT22;46577;49.004;12.120;2022-11-15T14:44:43;13.80;95.20
60727;DHT22;46577;49.004;12.120;2022-11-15T14:47:08;13.90;95.40
60727;DHT22;46577;49.004;12.120;2022-11-15T14:49:34;13.80;95.60
60727;DHT22;46577;49.004;12.120;2022-11-15T14:52:00;13.80;95.80
60727;DHT22;46577;49.004;12.120;2022-11-15T14:54:25;13.80;95.90
60727;DHT22;46577;49.004;12.120;2022-11-15T14:56:51;13.70;96.00
60727;DHT22;46577;49.004;12.120;2022-11-15T14:59:16;13.60;96.10
60727;DHT22;46577;49.004;12.120;2022-11-15T15:01:42;13.60;96.30
60727;DHT22;46577;49.004;12.120;2022-11-15T15:04:09;13.50;96.50
60727;DHT22;46577;49.004;12.120;2022-11-15T15:06:35;13.50;96.80
60727;DHT22;46577;49.004;12.120;2022-11-15T15:09:01;13.50;97.00
60727;DHT22;46577;49.004;12.120;2022-11-15T15:11:30;13.40;97.20
60727;DHT22;46577;49.004;12.120;2022-11-15T15:13:56;13.40;97.40
60727;DHT22;46577;49.004;12.120;2022-11-15T15:16:24;13.30;97.50
60727;DHT22;46577;49.004;12.120;2022-11-15T15:18:50;13.30;97.60
60727;DHT22;46577;49.004;12.120;2022-11-15T15:21:28;13.20;97.90
60727;DHT22;46577;49.004;12.120;2022-11-15T15:23:56;13.30;98.50
60727;DHT22;46577;49.004;12.120;2022-11-15T15:26:25;13.20;98.20
60727;DHT22;46577;49.004;12.120;2022-11-15T15:28:50;13.10;98.40
60727;DHT22;46577;49.004;12.120;2022-11-15T15:31:17;13.00;98.60
60727;DHT22;46577;49.004;12.120;2022-11-15T15:33:43;12.90;98.60
60727;DHT22;46577;49.004;12.120;2022-11-15T15:36:11;12.90;99.00
60727;DHT22;46577;49.004;12.120;2022-11-15T15:38:37;12.80;99.20
60727;DHT22;46577;49.004;12.120;2022-11-15T15:41:14;12.70;99.50
60727;DHT22;46577;49.004;12.120;2022-11-15T15:43:40;12.60;99.90
60727;DHT22;46577;49.004;12.120;2022-11-15T15:46:16;12.60;99.90
60727;DHT22;46577;49.004;12.120;2022-11-15T15:48:42;12.50;99.90
60727;DHT22;46577;49.004;12.120;2022-11-15T15:51:08;12.40;99.90
60727;DHT22;46577;49.004;12.120;2022-11-15T15:53:34;12.20;99.90
60727;DHT22;46577;49.004;12.120;2022-11-15T15:56:00;12.20;99.90
60727;DHT22;46577;49.004;12.120;2022-11-15T15:58:25;12.20;99.90
60727;DHT22;46577;49.004;12.120;2022-11-15T16:00:51;12.00;99.90
60727;DHT22;46577;49.004;12.120;2022-11-15T16:03:17;11.90;99.90
60727;DHT22;46577;49.004;12.120;2022-11-15T16:05:42;11.80;99.90
60727;DHT22;46577;49.004;12.120;2022-11-15T16:08:19;11.80;99.90
60727;DHT22;46577;49.004;12.120;2022-11-15T16:10:45;11.70;99.90
60727;DHT22;46577;49.004;12.120;2022-11-15T16:13:11;11.60;99.90
60727;DHT22;46577;49.004;12.120;2022-11-15T16:15:36;11.60;99.90
60727;DHT22;46577;49.004;12.120;2022-11-15T16:18:03;11.50;99.90
60727;DHT22;46577;49.004;12.120;2022-11-15T16:23:03;11.40;99.90
60727;DHT22;46577;49.004;12.120;2022-11-15T16:25:31;11.30;99.90
60727;DHT22;46577;49.004;12.120;2022-11-15T16:27:58;11.20;99.90
60727;DHT22;46577;49.004;12.120;2022-11-15T16:30:23;11.10;99.90
60727;DHT22;46577;49.004;12.120;2022-11-15T16:32:49;11.00;99.90
60727;DHT22;46577;49.004;12.120;2022-11-15T16:35:16;10.80;99.90
60727;DHT22;46577;49.004;12.120;2022-11-15T16:37:42;10.60;99.90
60727;DHT22;46577;49.004;12.120;2022-11-15T16:40:31;10.60;99.90
60727;DHT22;46577;49.004;12.120;2022-11-15T16:42:58;10.40;99.90
60727;DHT22;46577;49.004;12.120;2022-11-15T16:45:25;10.40;99.90
60727;DHT22;46577;49.004;12.120;2022-11-15T16:47:52;10.50;99.90
60727;DHT22;46577;49.004;12.120;2022-11-15T16:50:24;10.40;99.90
60727;DHT22;46577;49.004;12.120;2022-11-15T16:52:54;10.40;99.90
60727;DHT22;46577;49.004;12.120;2022-11-15T16:55:22;10.30;99.90
60727;DHT22;46577;49.004;12.120;2022-11-15T16:57:48;10.30;99.90
60727;DHT22;46577;49.004;12.120;2022-11-15T17:00:15;10.30;99.90
60727;DHT22;46577;49.004;12.120;2022-11-15T17:02:46;10.30;99.90
60727;DHT22;46577;49.004;12.120;2022-11-15T17:05:13;10.30;99.90
60727;DHT22;46577;49.004;12.120;2022-11-15T17:07:39;10.00;99.90
60727;DHT22;46577;49.004;12.120;2022-11-15T17:10:06;10.10;99.90
60727;DHT22;46577;49.004;12.120;2022-11-15T17:12:33;9.90;99.90
60727;DHT22;46577;49.004;12.120;2022-11-15T17:14:59;9.90;99.90
60727;DHT22;46577;49.004;12.120;2022-11-15T17:17:24;9.90;99.90
60727;DHT22;46577;49.004;12.120;2022-11-15T17:19:51;9.70;99.90
60727;DHT22;46577;49.004;12.120;2022-11-15T17:22:18;9.60;99.90
60727;DHT22;46577;49.004;12.120;2022-11-15T17:24:43;9.70;99.90
60727;DHT22;46577;49.004;12.120;2022-11-15T17:27:09;9.70;99.90
60727;DHT22;46577;49.004;12.120;2022-11-15T17:29:34;9.60;99.90